Time,TemperatureF,DewpointF,PressureIn,WindDirection,WindDirectionDegrees,WindSpeedMPH,WindSpeedGustMPH,Humidity,HourlyPrecipIn,Conditions,Clouds,dailyrainin,SoftwareType,DateUTC
2013-01-29 00:00:00,36.1,34.3,30.04,WSW,257,7.0,9.0,93,0.00,,,0.13,VWS V14.01,2013-01-29 05:00:00,
2013-01-29 00:02:00,36.1,34.0,30.04,WSW,250,6.0,8.0,92,0.00,,,0.00,VWS V14.01,2013-01-29 05:02:00,
2013-01-29 00:03:00,36.1,34.3,30.04,SW,229,4.0,8.0,93,0.00,,,0.00,VWS V14.01,2013-01-29 05:03:00,
2013-01-29 00:08:00,36.1,34.0,30.04,WSW,248,0.0,8.0,92,0.00,,,0.00,VWS V14.01,2013-01-29 05:08:00,
2013-01-29 00:13:00,35.9,33.8,30.04,WSW,248,0.0,8.0,92,0.00,,,0.00,VWS V14.01,2013-01-29 05:13:00,
2013-01-29 00:15:00,35.9,33.8,30.04,SW,225,1.0,10.0,92,0.00,,,0.00,VWS V14.01,2013-01-29 05:15:00,
2013-01-29 00:18:00,35.9,33.8,30.04,WSW,248,0.0,0.0,92,0.00,,,0.00,VWS V14.01,2013-01-29 05:18:00,
2013-01-29 00:23:00,35.8,33.7,30.04,WSW,250,0.0,0.0,92,0.00,,,0.00,VWS V14.01,2013-01-29 05:23:00,
2013-01-29 00:28:00,35.6,33.5,30.04,NW,309,0.0,0.0,92,0.00,,,0.00,VWS V14.01,2013-01-29 05:28:00,
2013-01-29 00:30:00,35.5,33.4,30.03,SW,225,0.0,0.0,92,0.00,,,0.00,VWS V14.01,2013-01-29 05:30:00,
2013-01-29 00:33:00,35.3,33.2,30.03,NNW,340,0.0,0.0,92,0.00,,,0.00,VWS V14.01,2013-01-29 05:33:00,
2013-01-29 00:38:00,35.3,33.2,30.03,NNW,340,0.0,0.0,92,0.00,,,0.00,VWS V14.01,2013-01-29 05:38:00,
2013-01-29 00:43:00,35.2,33.1,30.03,NNW,340,0.0,0.0,92,0.00,,,0.00,VWS V14.01,2013-01-29 05:43:00,
2013-01-29 00:45:00,35.0,32.9,30.03,NNW,338,0.0,1.0,92,0.00,,,0.00,VWS V14.01,2013-01-29 05:45:00,
2013-01-29 00:48:00,35.0,32.9,30.03,NNW,340,0.0,0.0,92,0.00,,,0.00,VWS V14.01,2013-01-29 05:48:00,
2013-01-29 00:53:00,34.9,32.8,30.03,NNW,340,0.0,0.0,92,0.00,,,0.00,VWS V14.01,2013-01-29 05:53:00,
2013-01-29 00:58:00,35.0,32.9,30.03,NNW,340,0.0,0.0,92,0.00,,,0.00,VWS V14.01,2013-01-29 05:58:00,
2013-01-29 01:00:00,34.9,32.8,30.03,NNW,338,0.0,1.0,92,0.00,,,0.00,VWS V14.01,2013-01-29 06:00:00,
2013-01-29 01:03:00,35.0,32.9,30.03,NNW,340,0.0,0.0,92,0.00,,,0.00,VWS V14.01,2013-01-29 06:03:00,
2013-01-29 01:08:00,34.9,32.8,30.03,NNW,340,0.0,3.0,92,0.00,,,0.00,VWS V14.01,2013-01-29 06:08:00,
2013-01-29 01:13:00,34.9,32.8,30.03,NNW,340,1.0,3.0,92,0.00,,,0.00,VWS V14.01,2013-01-29 06:13:00,
2013-01-29 01:15:00,34.9,32.8,30.03,NNW,338,1.0,3.0,92,0.00,,,0.00,VWS V14.01,2013-01-29 06:15:00,
2013-01-29 01:18:00,34.7,32.6,30.03,North,355,1.0,4.0,92,0.00,,,0.00,VWS V14.01,2013-01-29 06:18:00,
2013-01-29 01:23:00,34.7,32.6,30.03,North,355,0.0,4.0,92,0.00,,,0.00,VWS V14.01,2013-01-29 06:23:00,
2013-01-29 01:28:00,34.6,32.5,30.03,North,355,0.0,4.0,92,0.00,,,0.00,VWS V14.01,2013-01-29 06:28:00,
2013-01-29 01:30:00,34.6,32.8,30.04,NNW,338,0.0,4.0,93,0.00,,,0.00,VWS V14.01,2013-01-29 06:30:00,
2013-01-29 01:33:00,34.6,32.8,30.04,North,355,0.0,0.0,93,0.00,,,0.00,VWS V14.01,2013-01-29 06:33:00,
2013-01-29 01:38:00,34.6,32.8,30.04,North,355,0.0,0.0,93,0.00,,,0.00,VWS V14.01,2013-01-29 06:38:00,
2013-01-29 01:43:00,34.6,32.8,30.04,North,355,0.0,0.0,93,0.00,,,0.00,VWS V14.01,2013-01-29 06:43:00,
2013-01-29 01:45:00,34.6,32.8,30.04,NNW,338,0.0,0.0,93,0.00,,,0.00,VWS V14.01,2013-01-29 06:45:00,
2013-01-29 01:48:00,34.6,32.8,30.04,North,355,0.0,0.0,93,0.00,,,0.00,VWS V14.01,2013-01-29 06:48:00,
2013-01-29 01:53:00,34.4,32.6,30.04,North,355,0.0,2.0,93,0.00,,,0.00,VWS V14.01,2013-01-29 06:53:00,
2013-01-29 01:58:00,34.4,32.6,30.04,North,355,0.0,2.0,93,0.00,,,0.00,VWS V14.01,2013-01-29 06:58:00,
2013-01-29 02:00:00,34.4,32.6,30.04,North,0,0.0,2.0,93,0.00,,,0.00,VWS V14.01,2013-01-29 07:00:00,
2013-01-29 02:03:00,34.6,32.8,30.04,North,355,0.0,0.0,93,0.00,,,0.00,VWS V14.01,2013-01-29 07:03:00,
2013-01-29 02:08:00,34.4,32.6,30.04,North,355,0.0,0.0,93,0.00,,,0.00,VWS V14.01,2013-01-29 07:08:00,
2013-01-29 02:13:00,34.4,32.6,30.04,North,355,0.0,0.0,93,0.00,,,0.00,VWS V14.01,2013-01-29 07:13:00,
2013-01-29 02:15:00,34.4,32.6,30.04,North,0,0.0,0.0,93,0.00,,,0.00,VWS V14.01,2013-01-29 07:15:00,
2013-01-29 02:18:00,34.4,32.6,30.04,North,355,0.0,0.0,93,0.00,,,0.00,VWS V14.01,2013-01-29 07:18:00,
2013-01-29 02:23:00,34.4,32.9,30.04,North,355,0.0,0.0,94,0.00,,,0.00,VWS V14.01,2013-01-29 07:23:00,
2013-01-29 02:28:00,34.6,33.0,30.04,North,355,0.0,0.0,94,0.00,,,0.00,VWS V14.01,2013-01-29 07:28:00,
2013-01-29 02:30:00,34.6,33.0,30.04,North,0,0.0,1.0,94,0.00,,,0.00,VWS V14.01,2013-01-29 07:30:00,
2013-01-29 02:33:00,34.6,33.0,30.04,North,355,3.0,3.0,94,0.00,,,0.00,VWS V14.01,2013-01-29 07:33:00,
2013-01-29 02:37:00,34.6,33.0,30.04,North,355,0.0,4.0,94,0.00,,,0.00,VWS V14.01,2013-01-29 07:37:00,
2013-01-29 02:42:00,34.7,33.2,30.04,North,355,0.0,4.0,94,0.00,,,0.00,VWS V14.01,2013-01-29 07:42:00,
2013-01-29 02:45:00,34.7,33.2,30.04,North,0,0.0,4.0,94,0.00,,,0.00,VWS V14.01,2013-01-29 07:45:00,
2013-01-29 02:47:00,34.7,33.2,30.04,North,355,0.0,0.0,94,0.00,,,0.00,VWS V14.01,2013-01-29 07:47:00,
2013-01-29 02:52:00,34.7,33.2,30.04,North,355,0.0,0.0,94,0.00,,,0.00,VWS V14.01,2013-01-29 07:52:00,
2013-01-29 02:57:00,34.9,33.3,30.04,North,355,0.0,0.0,94,0.00,,,0.00,VWS V14.01,2013-01-29 07:57:00,
2013-01-29 03:00:00,34.9,33.3,30.04,North,0,0.0,0.0,94,0.00,,,0.00,VWS V14.01,2013-01-29 08:00:00,
2013-01-29 03:02:00,34.9,33.3,30.04,North,355,0.0,0.0,94,0.00,,,0.00,VWS V14.01,2013-01-29 08:02:00,
2013-01-29 03:07:00,34.9,33.3,30.04,North,355,0.0,0.0,94,0.00,,,0.00,VWS V14.01,2013-01-29 08:07:00,
2013-01-29 03:12:00,35.0,33.5,30.04,North,355,0.0,0.0,94,0.00,,,0.00,VWS V14.01,2013-01-29 08:12:00,
2013-01-29 03:15:00,35.0,33.5,30.04,North,0,0.0,0.0,94,0.00,,,0.00,VWS V14.01,2013-01-29 08:15:00,
2013-01-29 03:17:00,35.0,33.5,30.04,North,355,0.0,0.0,94,0.00,,,0.00,VWS V14.01,2013-01-29 08:17:00,
2013-01-29 03:22:00,35.0,33.5,30.04,North,355,0.0,0.0,94,0.00,,,0.00,VWS V14.01,2013-01-29 08:22:00,
2013-01-29 03:27:00,35.0,33.5,30.04,North,355,0.0,0.0,94,0.00,,,0.00,VWS V14.01,2013-01-29 08:27:00,
2013-01-29 03:30:00,35.0,33.5,30.04,North,0,0.0,0.0,94,0.00,,,0.00,VWS V14.01,2013-01-29 08:30:00,
2013-01-29 03:32:00,35.0,33.5,30.04,North,355,0.0,0.0,94,0.00,,,0.00,VWS V14.01,2013-01-29 08:32:00,
2013-01-29 03:37:00,35.0,33.5,30.04,North,355,0.0,0.0,94,0.00,,,0.00,VWS V14.01,2013-01-29 08:37:00,
2013-01-29 03:42:00,35.0,33.5,30.04,North,355,0.0,0.0,94,0.00,,,0.00,VWS V14.01,2013-01-29 08:42:00,
2013-01-29 03:45:00,35.0,33.5,30.05,North,0,0.0,0.0,94,0.00,,,0.00,VWS V14.01,2013-01-29 08:45:00,
2013-01-29 03:47:00,35.0,33.5,30.05,North,355,0.0,0.0,94,0.00,,,0.00,VWS V14.01,2013-01-29 08:47:00,
2013-01-29 03:52:00,35.0,33.5,30.05,North,355,0.0,0.0,94,0.00,,,0.00,VWS V14.01,2013-01-29 08:52:00,
2013-01-29 03:57:00,35.0,33.5,30.05,North,355,0.0,0.0,94,0.00,,,0.00,VWS V14.01,2013-01-29 08:57:00,
2013-01-29 04:00:00,35.0,33.5,30.05,North,0,0.0,0.0,94,0.00,,,0.00,VWS V14.01,2013-01-29 09:00:00,
2013-01-29 04:02:00,35.0,33.5,30.05,North,355,0.0,0.0,94,0.00,,,0.00,VWS V14.01,2013-01-29 09:02:00,
2013-01-29 04:07:00,34.9,33.3,30.05,North,355,0.0,0.0,94,0.00,,,0.00,VWS V14.01,2013-01-29 09:07:00,
2013-01-29 04:12:00,34.9,33.3,30.05,North,355,0.0,0.0,94,0.00,,,0.00,VWS V14.01,2013-01-29 09:12:00,
2013-01-29 04:15:00,34.7,33.2,30.05,North,0,0.0,0.0,94,0.00,,,0.00,VWS V14.01,2013-01-29 09:15:00,
2013-01-29 04:17:00,34.9,33.3,30.05,North,355,0.0,0.0,94,0.00,,,0.00,VWS V14.01,2013-01-29 09:17:00,
2013-01-29 04:22:00,34.9,33.3,30.05,North,355,0.0,0.0,94,0.00,,,0.00,VWS V14.01,2013-01-29 09:22:00,
2013-01-29 04:27:00,34.9,33.3,30.05,North,355,0.0,0.0,94,0.00,,,0.00,VWS V14.01,2013-01-29 09:27:00,
2013-01-29 04:30:00,34.9,33.3,30.06,North,0,0.0,0.0,94,0.00,,,0.00,VWS V14.01,2013-01-29 09:30:00,
2013-01-29 04:32:00,34.9,33.3,30.06,North,355,0.0,0.0,94,0.00,,,0.00,VWS V14.01,2013-01-29 09:32:00,
2013-01-29 04:37:00,34.9,33.3,30.06,North,355,0.0,0.0,94,0.00,,,0.00,VWS V14.01,2013-01-29 09:37:00,
2013-01-29 04:42:00,34.9,33.3,30.06,North,355,0.0,0.0,94,0.00,,,0.00,VWS V14.01,2013-01-29 09:42:00,
2013-01-29 04:45:00,34.9,33.3,30.07,North,0,0.0,0.0,94,0.00,,,0.00,VWS V14.01,2013-01-29 09:45:00,
2013-01-29 04:47:00,34.9,33.3,30.07,North,355,0.0,0.0,94,0.00,,,0.00,VWS V14.01,2013-01-29 09:47:00,
2013-01-29 04:52:00,34.9,33.3,30.07,North,355,0.0,0.0,94,0.00,,,0.00,VWS V14.01,2013-01-29 09:52:00,
2013-01-29 04:57:00,34.9,33.3,30.07,North,355,0.0,0.0,94,0.00,,,0.00,VWS V14.01,2013-01-29 09:57:00,
2013-01-29 05:00:00,35.0,33.5,30.07,North,0,0.0,0.0,94,0.00,,,0.00,VWS V14.01,2013-01-29 10:00:00,
2013-01-29 05:02:00,35.0,33.5,30.07,North,355,0.0,0.0,94,0.00,,,0.00,VWS V14.01,2013-01-29 10:02:00,
2013-01-29 05:07:00,35.2,33.9,30.07,North,355,0.0,0.0,95,0.00,,,0.00,VWS V14.01,2013-01-29 10:07:00,
2013-01-29 05:12:00,35.2,33.9,30.07,North,355,0.0,0.0,95,0.00,,,0.00,VWS V14.01,2013-01-29 10:12:00,
2013-01-29 05:15:00,35.3,34.0,30.08,North,0,0.0,0.0,95,0.00,,,0.00,VWS V14.01,2013-01-29 10:15:00,
2013-01-29 05:17:00,35.3,34.0,30.08,North,355,0.0,0.0,95,0.00,,,0.00,VWS V14.01,2013-01-29 10:17:00,
2013-01-29 05:22:00,35.3,33.8,30.08,North,355,0.0,0.0,94,0.00,,,0.00,VWS V14.01,2013-01-29 10:22:00,
2013-01-29 05:27:00,35.0,33.5,30.08,North,355,1.0,4.0,94,0.00,,,0.00,VWS V14.01,2013-01-29 10:27:00,
2013-01-29 05:30:00,34.9,33.3,30.09,North,0,0.0,4.0,94,0.00,,,0.00,VWS V14.01,2013-01-29 10:30:00,
2013-01-29 05:32:00,34.9,33.3,30.09,North,355,0.0,0.0,94,0.00,,,0.00,VWS V14.01,2013-01-29 10:32:00,
2013-01-29 05:37:00,35.0,33.5,30.09,North,355,0.0,0.0,94,0.00,,,0.00,VWS V14.01,2013-01-29 10:37:00,
2013-01-29 05:42:00,35.0,33.5,30.09,North,355,0.0,0.0,94,0.00,,,0.00,VWS V14.01,2013-01-29 10:42:00,
2013-01-29 05:45:00,35.0,33.7,30.10,North,0,0.0,0.0,95,0.00,,,0.00,VWS V14.01,2013-01-29 10:45:00,
2013-01-29 05:47:00,35.2,33.9,30.10,North,355,0.0,0.0,95,0.00,,,0.00,VWS V14.01,2013-01-29 10:47:00,
2013-01-29 05:52:00,35.3,34.0,30.10,North,355,0.0,0.0,95,0.00,,,0.00,VWS V14.01,2013-01-29 10:52:00,
2013-01-29 05:57:00,35.5,34.2,30.10,North,355,0.0,0.0,95,0.00,,,0.00,VWS V14.01,2013-01-29 10:57:00,
2013-01-29 06:00:00,35.5,34.2,30.10,North,0,0.0,0.0,95,0.00,,,0.00,VWS V14.01,2013-01-29 11:00:00,
2013-01-29 06:02:00,35.6,34.3,30.10,North,355,0.0,0.0,95,0.00,,,0.00,VWS V14.01,2013-01-29 11:02:00,
2013-01-29 06:07:00,35.6,34.3,30.10,North,355,0.0,0.0,95,0.00,,,0.00,VWS V14.01,2013-01-29 11:07:00,
2013-01-29 06:12:00,35.5,34.0,30.10,North,355,0.0,0.0,94,0.00,,,0.00,VWS V14.01,2013-01-29 11:12:00,
2013-01-29 06:15:00,35.5,34.0,30.10,North,0,0.0,0.0,94,0.00,,,0.00,VWS V14.01,2013-01-29 11:15:00,
2013-01-29 06:17:00,35.3,33.8,30.10,North,355,0.0,0.0,94,0.00,,,0.00,VWS V14.01,2013-01-29 11:17:00,
2013-01-29 06:22:00,35.5,34.2,30.10,North,355,0.0,0.0,95,0.00,,,0.00,VWS V14.01,2013-01-29 11:22:00,
2013-01-29 06:27:00,35.5,34.2,30.10,North,355,0.0,0.0,95,0.00,,,0.00,VWS V14.01,2013-01-29 11:27:00,
2013-01-29 06:30:00,35.5,34.2,30.12,North,0,0.0,0.0,95,0.00,,,0.00,VWS V14.01,2013-01-29 11:30:00,
2013-01-29 06:32:00,35.5,34.2,30.12,North,355,0.0,0.0,95,0.00,,,0.00,VWS V14.01,2013-01-29 11:32:00,
2013-01-29 06:37:00,35.3,34.0,30.12,North,355,0.0,0.0,95,0.00,,,0.00,VWS V14.01,2013-01-29 11:37:00,
2013-01-29 06:42:00,35.3,34.0,30.12,North,355,0.0,0.0,95,0.00,,,0.00,VWS V14.01,2013-01-29 11:42:00,
2013-01-29 06:45:00,35.3,34.0,30.11,North,0,0.0,0.0,95,0.00,,,0.00,VWS V14.01,2013-01-29 11:45:00,
2013-01-29 06:47:00,35.3,34.0,30.11,North,355,0.0,0.0,95,0.00,,,0.00,VWS V14.01,2013-01-29 11:47:00,
2013-01-29 06:52:00,35.3,34.0,30.11,North,355,0.0,0.0,95,0.00,,,0.00,VWS V14.01,2013-01-29 11:52:00,
2013-01-29 06:57:00,35.3,34.0,30.11,North,355,0.0,0.0,95,0.00,,,0.00,VWS V14.01,2013-01-29 11:57:00,
2013-01-29 07:00:00,35.3,34.0,30.12,North,0,0.0,0.0,95,0.00,,,0.00,VWS V14.01,2013-01-29 12:00:00,
2013-01-29 07:02:00,35.3,34.0,30.12,North,355,0.0,0.0,95,0.00,,,0.00,VWS V14.01,2013-01-29 12:02:00,
2013-01-29 07:07:00,35.5,34.2,30.12,North,355,0.0,0.0,95,0.00,,,0.00,VWS V14.01,2013-01-29 12:07:00,
2013-01-29 07:12:00,35.3,34.0,30.12,North,355,0.0,0.0,95,0.00,,,0.00,VWS V14.01,2013-01-29 12:12:00,
2013-01-29 07:15:00,35.3,34.0,30.13,North,0,0.0,0.0,95,0.00,,,0.00,VWS V14.01,2013-01-29 12:15:00,
2013-01-29 07:17:00,35.3,34.0,30.13,North,355,0.0,0.0,95,0.00,,,0.00,VWS V14.01,2013-01-29 12:17:00,
2013-01-29 07:22:00,35.3,34.0,30.13,North,355,0.0,0.0,95,0.00,,,0.00,VWS V14.01,2013-01-29 12:22:00,
2013-01-29 07:27:00,35.3,34.0,30.13,North,355,0.0,0.0,95,0.00,,,0.00,VWS V14.01,2013-01-29 12:27:00,
2013-01-29 07:30:00,35.2,33.7,30.13,North,0,0.0,0.0,94,0.00,,,0.00,VWS V14.01,2013-01-29 12:30:00,
2013-01-29 07:32:00,35.2,33.7,30.13,North,355,0.0,0.0,94,0.00,,,0.00,VWS V14.01,2013-01-29 12:32:00,
2013-01-29 07:37:00,35.0,33.5,30.13,North,355,0.0,0.0,94,0.00,,,0.00,VWS V14.01,2013-01-29 12:37:00,
2013-01-29 07:42:00,35.2,33.9,30.13,North,355,0.0,0.0,95,0.00,,,0.00,VWS V14.01,2013-01-29 12:42:00,
2013-01-29 07:45:00,35.2,33.9,30.13,North,0,0.0,0.0,95,0.00,,,0.00,VWS V14.01,2013-01-29 12:45:00,
2013-01-29 07:47:00,35.2,33.9,30.13,North,355,0.0,0.0,95,0.00,,,0.00,VWS V14.01,2013-01-29 12:47:00,
2013-01-29 07:52:00,35.2,33.7,30.13,North,355,0.0,0.0,94,0.00,,,0.00,VWS V14.01,2013-01-29 12:52:00,
2013-01-29 07:57:00,35.2,33.9,30.13,North,355,0.0,0.0,95,0.00,,,0.00,VWS V14.01,2013-01-29 12:57:00,
2013-01-29 08:00:00,35.2,33.7,30.13,North,0,0.0,0.0,94,0.00,,,0.00,VWS V14.01,2013-01-29 13:00:00,
2013-01-29 08:02:00,35.0,33.5,30.13,North,355,0.0,0.0,94,0.00,,,0.00,VWS V14.01,2013-01-29 13:02:00,
2013-01-29 08:07:00,35.0,33.5,30.13,North,355,0.0,0.0,94,0.00,,,0.00,VWS V14.01,2013-01-29 13:07:00,
2013-01-29 08:12:00,35.0,33.7,30.13,North,355,0.0,0.0,95,0.00,,,0.00,VWS V14.01,2013-01-29 13:12:00,
2013-01-29 08:15:00,35.2,33.9,30.13,North,0,0.0,0.0,95,0.00,,,0.00,VWS V14.01,2013-01-29 13:15:00,
2013-01-29 08:17:00,35.3,34.0,30.13,North,355,0.0,0.0,95,0.00,,,0.00,VWS V14.01,2013-01-29 13:17:00,
2013-01-29 08:22:00,35.5,34.2,30.13,North,355,0.0,0.0,95,0.00,,,0.00,VWS V14.01,2013-01-29 13:22:00,
2013-01-29 08:27:00,35.8,34.5,30.13,North,355,0.0,0.0,95,0.00,,,0.00,VWS V14.01,2013-01-29 13:27:00,
2013-01-29 08:30:00,35.9,34.6,30.13,North,0,0.0,0.0,95,0.00,,,0.00,VWS V14.01,2013-01-29 13:30:00,
2013-01-29 08:32:00,35.9,34.6,30.13,North,355,1.0,2.0,95,0.00,,,0.00,VWS V14.01,2013-01-29 13:32:00,
2013-01-29 08:37:00,36.1,34.8,30.13,North,355,0.0,2.0,95,0.00,,,0.00,VWS V14.01,2013-01-29 13:37:00,
2013-01-29 08:42:00,36.2,34.9,30.13,North,355,0.0,2.0,95,0.00,,,0.00,VWS V14.01,2013-01-29 13:42:00,
2013-01-29 08:45:00,36.5,35.2,30.15,North,0,0.0,2.0,95,0.00,,,0.00,VWS V14.01,2013-01-29 13:45:00,
2013-01-29 08:47:00,36.5,35.2,30.15,North,355,0.0,0.0,95,0.00,,,0.00,VWS V14.01,2013-01-29 13:47:00,
2013-01-29 08:52:00,36.8,35.5,30.15,North,355,0.0,0.0,95,0.00,,,0.00,VWS V14.01,2013-01-29 13:52:00,
2013-01-29 08:57:00,36.9,35.6,30.15,North,355,0.0,0.0,95,0.00,,,0.00,VWS V14.01,2013-01-29 13:57:00,
2013-01-29 09:00:00,36.9,35.6,30.14,North,0,0.0,0.0,95,0.00,,,0.00,VWS V14.01,2013-01-29 14:00:00,
2013-01-29 09:02:00,37.1,35.8,30.14,North,355,0.0,0.0,95,0.00,,,0.00,VWS V14.01,2013-01-29 14:02:00,
2013-01-29 09:07:00,37.1,35.8,30.14,North,355,0.0,0.0,95,0.00,,,0.00,VWS V14.01,2013-01-29 14:07:00,
2013-01-29 09:12:00,37.4,36.4,30.14,North,355,0.0,0.0,96,0.00,,,0.00,VWS V14.01,2013-01-29 14:12:00,
2013-01-29 09:15:00,37.5,36.5,30.13,North,0,0.0,0.0,96,0.00,,,0.00,VWS V14.01,2013-01-29 14:15:00,
2013-01-29 09:17:00,37.6,36.6,30.13,North,355,0.0,0.0,96,0.00,,,0.00,VWS V14.01,2013-01-29 14:17:00,
2013-01-29 09:22:00,38.2,37.2,30.13,North,355,0.0,0.0,96,0.00,,,0.00,VWS V14.01,2013-01-29 14:22:00,
2013-01-29 09:27:00,38.6,37.6,30.13,North,355,0.0,0.0,96,0.00,,,0.00,VWS V14.01,2013-01-29 14:27:00,
2013-01-29 09:30:00,38.8,37.8,30.15,North,0,0.0,3.0,96,0.00,,,0.00,VWS V14.01,2013-01-29 14:30:00,
2013-01-29 09:32:00,38.8,37.8,30.15,NNW,342,2.0,4.0,96,0.00,,,0.00,VWS V14.01,2013-01-29 14:32:00,
2013-01-29 09:37:00,38.4,37.1,30.15,NNW,342,2.0,4.0,95,0.00,,,0.00,VWS V14.01,2013-01-29 14:37:00,
2013-01-29 09:42:00,38.8,37.5,30.15,NNW,342,0.0,4.0,95,0.00,,,0.00,VWS V14.01,2013-01-29 14:42:00,
2013-01-29 09:45:00,39.2,37.9,30.15,NNW,338,1.0,4.0,95,0.00,,,0.00,VWS V14.01,2013-01-29 14:45:00,
2013-01-29 09:47:00,39.4,38.1,30.15,NNW,342,0.0,0.0,95,0.00,,,0.00,VWS V14.01,2013-01-29 14:47:00,
2013-01-29 09:52:00,40.4,38.8,30.15,NNW,342,0.0,0.0,94,0.00,,,0.00,VWS V14.01,2013-01-29 14:52:00,
2013-01-29 09:57:00,40.7,39.1,30.15,NNW,342,0.0,0.0,94,0.00,,,0.00,VWS V14.01,2013-01-29 14:57:00,
2013-01-29 10:00:00,41.1,39.5,30.15,NNW,338,0.0,0.0,94,0.00,,,0.00,VWS V14.01,2013-01-29 15:00:00,
2013-01-29 10:02:00,41.2,39.6,30.15,NNW,342,0.0,0.0,94,0.00,,,0.00,VWS V14.01,2013-01-29 15:02:00,
2013-01-29 10:07:00,41.5,39.6,30.15,NNW,342,0.0,0.0,93,0.00,,,0.00,VWS V14.01,2013-01-29 15:07:00,
2013-01-29 10:12:00,41.5,39.3,30.15,NW,312,5.0,6.0,92,0.00,,,0.00,VWS V14.01,2013-01-29 15:12:00,
2013-01-29 10:15:00,41.2,38.8,30.16,NW,315,2.0,6.0,91,0.00,,,0.00,VWS V14.01,2013-01-29 15:15:00,
2013-01-29 10:17:00,41.1,38.7,30.16,NW,312,4.0,4.0,91,0.00,,,0.00,VWS V14.01,2013-01-29 15:17:00,
2013-01-29 10:22:00,41.1,38.7,30.16,NW,312,3.0,4.0,91,0.00,,,0.00,VWS V14.01,2013-01-29 15:22:00,
2013-01-29 10:27:00,41.2,38.8,30.16,NW,312,0.0,4.0,91,0.00,,,0.00,VWS V14.01,2013-01-29 15:27:00,
2013-01-29 10:30:00,41.5,39.1,30.15,NW,315,1.0,4.0,91,0.00,,,0.00,VWS V14.01,2013-01-29 15:30:00,
2013-01-29 10:32:00,41.7,39.3,30.15,NW,312,0.0,0.0,91,0.00,,,0.00,VWS V14.01,2013-01-29 15:32:00,
2013-01-29 10:37:00,42.2,39.8,30.15,NW,312,0.0,0.0,91,0.00,,,0.00,VWS V14.01,2013-01-29 15:37:00,
2013-01-29 10:42:00,42.7,40.0,30.15,NW,312,0.0,0.0,90,0.00,,,0.00,VWS V14.01,2013-01-29 15:42:00,
2013-01-29 10:45:00,43.1,40.4,30.15,NW,315,0.0,0.0,90,0.00,,,0.00,VWS V14.01,2013-01-29 15:45:00,
2013-01-29 10:47:00,43.2,40.5,30.15,NW,312,0.0,0.0,90,0.00,,,0.00,VWS V14.01,2013-01-29 15:47:00,
2013-01-29 10:52:00,44.1,41.1,30.15,NW,312,0.0,0.0,89,0.00,,,0.00,VWS V14.01,2013-01-29 15:52:00,
2013-01-29 10:57:00,44.2,40.0,30.15,NW,312,0.0,0.0,85,0.00,,,0.00,VWS V14.01,2013-01-29 15:57:00,
2013-01-29 11:00:00,44.7,40.5,30.13,NW,315,0.0,0.0,85,0.00,,,0.00,VWS V14.01,2013-01-29 16:00:00,
2013-01-29 11:02:00,45.5,41.6,30.13,NW,312,0.0,0.0,86,0.00,,,0.00,VWS V14.01,2013-01-29 16:02:00,
2013-01-29 11:07:00,47.3,41.1,30.13,NW,312,0.0,0.0,79,0.00,,,0.00,VWS V14.01,2013-01-29 16:07:00,
2013-01-29 11:12:00,47.0,41.2,30.13,NW,312,0.0,0.0,80,0.00,,,0.00,VWS V14.01,2013-01-29 16:12:00,
2013-01-29 11:15:00,47.0,41.5,30.13,NW,315,0.0,1.0,81,0.00,,,0.00,VWS V14.01,2013-01-29 16:15:00,
2013-01-29 11:17:00,47.0,41.5,30.13,NW,312,2.0,5.0,81,0.00,,,0.00,VWS V14.01,2013-01-29 16:17:00,
2013-01-29 11:22:00,47.3,41.8,30.13,NW,312,0.0,5.0,81,0.00,,,0.00,VWS V14.01,2013-01-29 16:22:00,
2013-01-29 11:26:00,47.7,41.8,30.13,NW,312,4.0,5.0,80,0.00,,,0.00,VWS V14.01,2013-01-29 16:26:00,
2013-01-29 11:30:00,47.9,41.4,30.13,NW,315,1.0,5.0,78,0.00,,,0.00,VWS V14.01,2013-01-29 16:30:00,
2013-01-29 11:31:00,47.7,41.5,30.13,NW,312,4.0,5.0,79,0.00,,,0.00,VWS V14.01,2013-01-29 16:31:00,
2013-01-29 11:36:00,47.9,41.7,30.13,WNW,295,0.0,5.0,79,0.00,,,0.00,VWS V14.01,2013-01-29 16:36:00,
2013-01-29 11:41:00,48.2,41.7,30.13,WNW,294,0.0,5.0,78,0.00,,,0.00,VWS V14.01,2013-01-29 16:41:00,
2013-01-29 11:45:00,48.6,42.1,30.13,NW,315,1.0,6.0,78,0.00,,,0.00,VWS V14.01,2013-01-29 16:45:00,
2013-01-29 11:46:00,48.6,41.7,30.13,WNW,295,0.0,0.0,77,0.00,,,0.00,VWS V14.01,2013-01-29 16:46:00,
2013-01-29 11:51:00,49.1,41.5,30.13,WNW,295,0.0,1.0,75,0.00,,,0.00,VWS V14.01,2013-01-29 16:51:00,
2013-01-29 11:56:00,49.1,42.5,30.13,WNW,295,0.0,1.0,78,0.00,,,0.00,VWS V14.01,2013-01-29 16:56:00,
2013-01-29 12:00:00,48.8,41.9,30.12,WNW,292,0.0,1.0,77,0.00,,,0.00,VWS V14.01,2013-01-29 17:00:00,
2013-01-29 12:01:00,48.8,41.6,30.12,WNW,295,0.0,0.0,76,0.00,,,0.00,VWS V14.01,2013-01-29 17:01:00,
2013-01-29 12:06:00,48.8,41.6,30.12,WNW,295,4.0,4.0,76,0.00,,,0.00,VWS V14.01,2013-01-29 17:06:00,
2013-01-29 12:11:00,48.9,41.3,30.12,WNW,295,0.0,5.0,75,0.00,,,0.00,VWS V14.01,2013-01-29 17:11:00,
2013-01-29 12:15:00,48.8,41.2,30.11,WNW,292,1.0,5.0,75,0.00,,,0.00,VWS V14.01,2013-01-29 17:15:00,
2013-01-29 12:16:00,48.8,41.2,30.11,WNW,295,0.0,0.0,75,0.00,,,0.00,VWS V14.01,2013-01-29 17:16:00,
2013-01-29 12:21:00,49.1,41.2,30.11,WNW,295,0.0,1.0,74,0.00,,,0.00,VWS V14.01,2013-01-29 17:21:00,
2013-01-29 12:26:00,49.1,41.2,30.11,WNW,295,0.0,1.0,74,0.00,,,0.00,VWS V14.01,2013-01-29 17:26:00,
2013-01-29 12:30:00,49.2,40.6,30.11,WNW,292,0.0,1.0,72,0.00,,,0.00,VWS V14.01,2013-01-29 17:30:00,
2013-01-29 12:31:00,49.2,40.6,30.11,WNW,295,0.0,0.0,72,0.00,,,0.00,VWS V14.01,2013-01-29 17:31:00,
2013-01-29 12:36:00,49.4,40.8,30.11,WNW,294,0.0,0.0,72,0.00,,,0.00,VWS V14.01,2013-01-29 17:36:00,
2013-01-29 12:41:00,50.2,41.2,30.11,WNW,295,0.0,0.0,71,0.00,,,0.00,VWS V14.01,2013-01-29 17:41:00,
2013-01-29 12:45:00,51.1,42.0,30.10,WNW,292,0.0,0.0,71,0.00,,,0.00,VWS V14.01,2013-01-29 17:45:00,
2013-01-29 12:46:00,51.4,41.6,30.10,WNW,295,0.0,0.0,69,0.00,,,0.00,VWS V14.01,2013-01-29 17:46:00,
2013-01-29 12:51:00,50.8,41.4,30.10,WNW,295,0.0,1.0,70,0.00,,,0.00,VWS V14.01,2013-01-29 17:51:00,
2013-01-29 12:56:00,50.4,41.4,30.10,WNW,295,0.0,1.0,71,0.00,,,0.00,VWS V14.01,2013-01-29 17:56:00,
2013-01-29 13:00:00,50.2,41.5,30.10,WNW,292,0.0,5.0,72,0.00,,,0.00,VWS V14.01,2013-01-29 18:00:00,
2013-01-29 13:01:00,50.1,41.1,30.10,WNW,294,2.0,3.0,71,0.00,,,0.00,VWS V14.01,2013-01-29 18:01:00,
2013-01-29 13:06:00,50.0,41.3,30.10,WNW,295,0.0,3.0,72,0.00,,,0.00,VWS V14.01,2013-01-29 18:06:00,
2013-01-29 13:11:00,50.2,41.2,30.10,WNW,294,0.0,3.0,71,0.00,,,0.00,VWS V14.01,2013-01-29 18:11:00,
2013-01-29 13:15:00,51.4,42.0,30.09,WNW,292,0.0,4.0,70,0.00,,,0.00,VWS V14.01,2013-01-29 18:15:00,
2013-01-29 13:16:00,51.3,41.9,30.09,WNW,295,1.0,1.0,70,0.00,,,0.00,VWS V14.01,2013-01-29 18:16:00,
2013-01-29 13:21:00,51.3,42.2,30.09,WNW,294,0.0,1.0,71,0.00,,,0.00,VWS V14.01,2013-01-29 18:21:00,
2013-01-29 13:26:00,51.1,42.0,30.09,WNW,295,0.0,1.0,71,0.00,,,0.00,VWS V14.01,2013-01-29 18:26:00,
2013-01-29 13:30:00,50.8,42.1,30.09,WNW,292,0.0,1.0,72,0.00,,,0.00,VWS V14.01,2013-01-29 18:30:00,
2013-01-29 13:31:00,50.8,41.8,30.09,WNW,295,0.0,1.0,71,0.00,,,0.00,VWS V14.01,2013-01-29 18:31:00,
2013-01-29 13:36:00,51.0,41.9,30.09,WNW,295,0.0,1.0,71,0.00,,,0.00,VWS V14.01,2013-01-29 18:36:00,
2013-01-29 13:41:00,51.1,42.0,30.09,WNW,295,0.0,1.0,71,0.00,,,0.00,VWS V14.01,2013-01-29 18:41:00,
2013-01-29 13:45:00,51.4,42.3,30.08,WNW,292,0.0,1.0,71,0.00,,,0.00,VWS V14.01,2013-01-29 18:45:00,
2013-01-29 13:46:00,51.4,42.3,30.08,WNW,294,0.0,2.0,71,0.00,,,0.00,VWS V14.01,2013-01-29 18:46:00,
2013-01-29 13:51:00,51.7,42.2,30.08,WNW,295,0.0,2.0,70,0.00,,,0.00,VWS V14.01,2013-01-29 18:51:00,
2013-01-29 13:56:00,51.9,42.4,30.08,WNW,295,2.0,2.0,70,0.00,,,0.00,VWS V14.01,2013-01-29 18:56:00,
2013-01-29 14:00:00,51.7,42.2,30.09,WNW,292,0.0,2.0,70,0.00,,,0.00,VWS V14.01,2013-01-29 19:00:00,
2013-01-29 14:01:00,51.7,42.2,30.09,WNW,295,0.0,0.0,70,0.00,,,0.00,VWS V14.01,2013-01-29 19:01:00,
2013-01-29 14:06:00,51.7,42.2,30.09,WNW,295,0.0,0.0,70,0.00,,,0.00,VWS V14.01,2013-01-29 19:06:00,
2013-01-29 14:11:00,51.7,42.6,30.09,WNW,295,1.0,4.0,71,0.00,,,0.00,VWS V14.01,2013-01-29 19:11:00,
2013-01-29 14:15:00,51.9,42.8,30.08,WNW,292,0.0,4.0,71,0.00,,,0.00,VWS V14.01,2013-01-29 19:15:00,
2013-01-29 14:16:00,51.9,42.8,30.08,WNW,295,0.0,0.0,71,0.00,,,0.00,VWS V14.01,2013-01-29 19:16:00,
2013-01-29 14:21:00,52.0,42.9,30.08,WNW,295,2.0,4.0,71,0.00,,,0.00,VWS V14.01,2013-01-29 19:21:00,
2013-01-29 14:26:00,52.3,43.2,30.08,WNW,295,0.0,4.0,71,0.00,,,0.00,VWS V14.01,2013-01-29 19:26:00,
2013-01-29 14:30:00,52.3,43.2,30.08,WNW,292,1.0,4.0,71,0.00,,,0.00,VWS V14.01,2013-01-29 19:30:00,
2013-01-29 14:31:00,52.3,43.2,30.08,WNW,295,4.0,4.0,71,0.00,,,0.00,VWS V14.01,2013-01-29 19:31:00,
2013-01-29 14:36:00,52.3,43.2,30.08,WNW,295,0.0,4.0,71,0.00,,,0.00,VWS V14.01,2013-01-29 19:36:00,
2013-01-29 14:41:00,52.2,43.1,30.08,NNW,343,0.0,4.0,71,0.00,,,0.00,VWS V14.01,2013-01-29 19:41:00,
2013-01-29 14:45:00,52.0,42.9,30.06,WNW,292,1.0,6.0,71,0.00,,,0.00,VWS V14.01,2013-01-29 19:45:00,
2013-01-29 14:46:00,52.0,42.9,30.06,ENE,57,2.0,5.0,71,0.00,,,0.00,VWS V14.01,2013-01-29 19:46:00,
2013-01-29 14:51:00,51.7,43.0,30.06,NE,53,0.0,5.0,72,0.00,,,0.00,VWS V14.01,2013-01-29 19:51:00,
2013-01-29 14:56:00,51.7,43.0,30.06,NW,306,6.0,6.0,72,0.00,,,0.00,VWS V14.01,2013-01-29 19:56:00,
2013-01-29 14:58:00,51.6,42.9,30.06,West,280,7.0,9.0,72,0.00,,,0.00,VWS V14.01,2013-01-29 19:58:00,
2013-01-29 15:00:00,51.4,42.7,30.07,ENE,68,3.0,9.0,72,0.00,,,0.00,VWS V14.01,2013-01-29 20:00:00,
2013-01-29 15:03:00,51.3,43.0,30.07,West,269,4.0,6.0,73,0.00,,,0.00,VWS V14.01,2013-01-29 20:03:00,
2013-01-29 15:08:00,51.1,42.8,30.07,ESE,104,0.0,8.0,73,0.00,,,0.00,VWS V14.01,2013-01-29 20:08:00,
2013-01-29 15:13:00,51.0,43.0,30.07,South,190,0.0,8.0,74,0.00,,,0.00,VWS V14.01,2013-01-29 20:13:00,
2013-01-29 15:15:00,51.0,42.7,30.08,West,270,2.0,8.0,73,0.00,,,0.00,VWS V14.01,2013-01-29 20:15:00,
2013-01-29 15:18:00,50.8,42.5,30.08,NW,323,3.0,8.0,73,0.00,,,0.00,VWS V14.01,2013-01-29 20:18:00,
2013-01-29 15:23:00,50.7,42.7,30.08,WNW,287,5.0,10.0,74,0.00,,,0.00,VWS V14.01,2013-01-29 20:23:00,
2013-01-29 15:28:00,50.5,42.5,30.08,WNW,283,5.0,10.0,74,0.00,,,0.00,VWS V14.01,2013-01-29 20:28:00,
2013-01-29 15:30:00,50.4,42.4,30.09,West,270,5.0,11.0,74,0.00,,,0.00,VWS V14.01,2013-01-29 20:30:00,
2013-01-29 15:33:00,50.4,42.4,30.09,West,261,2.0,7.0,74,0.00,,,0.00,VWS V14.01,2013-01-29 20:33:00,
2013-01-29 15:38:00,50.1,42.5,30.09,WSW,252,0.0,7.0,75,0.00,,,0.00,VWS V14.01,2013-01-29 20:38:00,
2013-01-29 15:43:00,50.1,42.5,30.09,SSW,210,4.0,7.0,75,0.00,,,0.00,VWS V14.01,2013-01-29 20:43:00,
2013-01-29 15:45:00,50.0,42.4,30.08,West,270,3.0,11.0,75,0.00,,,0.00,VWS V14.01,2013-01-29 20:45:00,
2013-01-29 15:48:00,50.0,42.4,30.08,WNW,293,1.0,11.0,75,0.00,,,0.00,VWS V14.01,2013-01-29 20:48:00,
2013-01-29 15:53:00,49.8,42.2,30.08,WSW,251,7.0,11.0,75,0.00,,,0.00,VWS V14.01,2013-01-29 20:53:00,
2013-01-29 15:58:00,49.7,42.5,30.08,WSW,246,6.0,11.0,76,0.00,,,0.00,VWS V14.01,2013-01-29 20:58:00,
2013-01-29 16:00:00,49.7,42.5,30.08,WSW,248,3.0,11.0,76,0.00,,,0.00,VWS V14.01,2013-01-29 21:00:00,
2013-01-29 16:03:00,49.5,42.3,30.08,WNW,284,1.0,7.0,76,0.00,,,0.00,VWS V14.01,2013-01-29 21:03:00,
2013-01-29 16:08:00,49.4,42.2,30.08,NE,48,3.0,10.0,76,0.00,,,0.00,VWS V14.01,2013-01-29 21:08:00,
2013-01-29 16:13:00,49.4,42.2,30.08,WNW,296,0.0,10.0,76,0.00,,,0.00,VWS V14.01,2013-01-29 21:13:00,
2013-01-29 16:15:00,49.2,42.0,30.08,WNW,292,3.0,10.0,76,0.00,,,0.00,VWS V14.01,2013-01-29 21:15:00,
2013-01-29 16:18:00,49.2,42.0,30.08,NW,311,4.0,5.0,76,0.00,,,0.00,VWS V14.01,2013-01-29 21:18:00,
2013-01-29 16:23:00,49.1,41.9,30.08,WSW,248,4.0,7.0,76,0.00,,,0.00,VWS V14.01,2013-01-29 21:23:00,
2013-01-29 16:28:00,48.9,42.0,30.08,WNW,296,6.0,8.0,77,0.00,,,0.00,VWS V14.01,2013-01-29 21:28:00,
2013-01-29 16:30:00,48.9,42.0,30.08,WSW,248,3.0,9.0,77,0.00,,,0.00,VWS V14.01,2013-01-29 21:30:00,
2013-01-29 16:33:00,48.9,42.0,30.08,WSW,244,0.0,5.0,77,0.00,,,0.00,VWS V14.01,2013-01-29 21:33:00,
2013-01-29 16:38:00,48.9,42.0,30.08,WNW,292,4.0,5.0,77,0.00,,,0.00,VWS V14.01,2013-01-29 21:38:00,
2013-01-29 16:43:00,48.9,42.0,30.08,NW,320,0.0,5.0,77,0.00,,,0.00,VWS V14.01,2013-01-29 21:43:00,
2013-01-29 16:45:00,48.8,41.9,30.08,WSW,248,1.0,6.0,77,0.00,,,0.00,VWS V14.01,2013-01-29 21:45:00,
2013-01-29 16:48:00,48.8,41.9,30.08,North,10,1.0,4.0,77,0.00,,,0.00,VWS V14.01,2013-01-29 21:48:00,
2013-01-29 16:53:00,48.6,42.1,30.08,NNW,329,1.0,7.0,78,0.00,,,0.00,VWS V14.01,2013-01-29 21:53:00,
2013-01-29 16:58:00,48.5,41.6,30.08,SW,225,0.0,7.0,77,0.00,,,0.00,VWS V14.01,2013-01-29 21:58:00,
2013-01-29 17:00:00,48.3,41.4,30.09,North,0,1.0,7.0,77,0.00,,,0.00,VWS V14.01,2013-01-29 22:00:00,
2013-01-29 17:03:00,48.3,41.4,30.09,SW,225,1.0,1.0,77,0.00,,,0.00,VWS V14.01,2013-01-29 22:03:00,
2013-01-29 17:08:00,48.0,41.5,30.09,ESE,117,3.0,4.0,78,0.00,,,0.00,VWS V14.01,2013-01-29 22:08:00,
2013-01-29 17:13:00,48.0,41.8,30.09,NE,53,0.0,6.0,79,0.00,,,0.00,VWS V14.01,2013-01-29 22:13:00,
2013-01-29 17:15:00,47.9,41.7,30.09,NE,45,1.0,7.0,79,0.00,,,0.00,VWS V14.01,2013-01-29 22:15:00,
2013-01-29 17:18:00,47.9,42.0,30.09,ENE,60,3.0,5.0,80,0.00,,,0.00,VWS V14.01,2013-01-29 22:18:00,
2013-01-29 17:23:00,47.7,41.8,30.09,NE,44,5.0,9.0,80,0.00,,,0.00,VWS V14.01,2013-01-29 22:23:00,
2013-01-29 17:28:00,47.7,42.2,30.09,NE,48,6.0,9.0,81,0.00,,,0.00,VWS V14.01,2013-01-29 22:28:00,
2013-01-29 17:30:00,47.6,42.1,30.09,NE,45,5.0,10.0,81,0.00,,,0.00,VWS V14.01,2013-01-29 22:30:00,
2013-01-29 17:33:00,47.7,42.2,30.09,NE,40,6.0,11.0,81,0.00,,,0.00,VWS V14.01,2013-01-29 22:33:00,
2013-01-29 17:38:00,47.7,42.5,30.09,ENE,57,2.0,11.0,82,0.01,,,0.01,VWS V14.01,2013-01-29 22:38:00,
2013-01-29 17:43:00,47.7,42.8,30.09,ENE,70,0.0,11.0,83,0.03,,,0.03,VWS V14.01,2013-01-29 22:43:00,
2013-01-29 17:45:00,47.6,42.7,30.10,ENE,68,3.0,11.0,83,0.03,,,0.03,VWS V14.01,2013-01-29 22:45:00,
2013-01-29 17:48:00,47.6,43.0,30.10,ESE,102,0.0,0.0,84,0.03,,,0.03,VWS V14.01,2013-01-29 22:48:00,
2013-01-29 17:53:00,47.3,42.7,30.10,ENE,57,3.0,8.0,84,0.03,,,0.03,VWS V14.01,2013-01-29 22:53:00,
2013-01-29 17:58:00,47.0,42.7,30.10,ENE,62,0.0,8.0,85,0.03,,,0.03,VWS V14.01,2013-01-29 22:58:00,
2013-01-29 18:00:00,46.8,42.5,30.10,ENE,68,3.0,8.0,85,0.03,,,0.03,VWS V14.01,2013-01-29 23:00:00,
2013-01-29 18:03:00,46.7,42.4,30.10,East,92,5.0,8.0,85,0.03,,,0.03,VWS V14.01,2013-01-29 23:03:00,
2013-01-29 18:08:00,46.4,42.1,30.10,ESE,105,2.0,8.0,85,0.03,,,0.03,VWS V14.01,2013-01-29 23:08:00,
2013-01-29 18:13:00,46.3,42.0,30.10,ESE,119,0.0,8.0,85,0.03,,,0.03,VWS V14.01,2013-01-29 23:13:00,
2013-01-29 18:15:00,46.3,42.0,30.10,East,90,2.0,8.0,85,0.03,,,0.03,VWS V14.01,2013-01-29 23:15:00,
2013-01-29 18:18:00,46.1,41.8,30.10,SSW,200,6.0,8.0,85,0.03,,,0.03,VWS V14.01,2013-01-29 23:18:00,
2013-01-29 18:23:00,46.0,41.8,30.10,ENE,65,0.0,8.0,85,0.03,,,0.03,VWS V14.01,2013-01-29 23:23:00,
2013-01-29 18:28:00,45.8,41.9,30.10,South,184,0.0,8.0,86,0.03,,,0.03,VWS V14.01,2013-01-29 23:28:00,
2013-01-29 18:30:00,45.7,41.8,30.10,NE,45,2.0,8.0,86,0.03,,,0.03,VWS V14.01,2013-01-29 23:30:00,
2013-01-29 18:33:00,45.5,41.6,30.10,WNW,286,0.0,0.0,86,0.03,,,0.03,VWS V14.01,2013-01-29 23:33:00,
2013-01-29 18:38:00,45.4,41.5,30.10,SW,220,0.0,2.0,86,0.03,,,0.03,VWS V14.01,2013-01-29 23:38:00,
2013-01-29 18:43:00,45.1,41.2,30.10,ESE,111,0.0,6.0,86,0.03,,,0.03,VWS V14.01,2013-01-29 23:43:00,
2013-01-29 18:45:00,44.9,41.0,30.10,ENE,68,1.0,6.0,86,0.03,,,0.03,VWS V14.01,2013-01-29 23:45:00,
2013-01-29 18:48:00,44.8,40.9,30.10,NE,51,6.0,6.0,86,0.00,,,0.03,VWS V14.01,2013-01-29 23:48:00,
2013-01-29 18:53:00,44.5,40.6,30.10,NE,41,3.0,8.0,86,0.02,,,0.05,VWS V14.01,2013-01-29 23:53:00,
2013-01-29 18:58:00,44.2,40.6,30.10,ENE,68,0.0,8.0,87,0.02,,,0.05,VWS V14.01,2013-01-29 23:58:00,
2013-01-29 19:00:00,44.2,40.6,30.09,NE,45,3.0,8.0,87,0.02,,,0.05,VWS V14.01,2013-01-30 00:00:00,
2013-01-29 19:03:00,44.2,40.6,30.09,West,268,5.0,7.0,87,0.02,,,0.05,VWS V14.01,2013-01-30 00:03:00,
2013-01-29 19:08:00,44.1,40.8,30.09,NE,40,0.0,8.0,88,0.02,,,0.05,VWS V14.01,2013-01-30 00:08:00,
2013-01-29 19:13:00,44.1,40.8,30.09,NE,40,0.0,8.0,88,0.02,,,0.05,VWS V14.01,2013-01-30 00:13:00,
2013-01-29 19:15:00,44.1,40.8,30.10,West,270,1.0,8.0,88,0.02,,,0.05,VWS V14.01,2013-01-30 00:15:00,
2013-01-29 19:18:00,44.1,40.8,30.10,NE,40,0.0,1.0,88,0.02,,,0.05,VWS V14.01,2013-01-30 00:18:00,
2013-01-29 19:23:00,43.9,40.6,30.10,NE,40,0.0,1.0,88,0.02,,,0.05,VWS V14.01,2013-01-30 00:23:00,
2013-01-29 19:28:00,43.9,40.6,30.10,NE,40,0.0,1.0,88,0.02,,,0.05,VWS V14.01,2013-01-30 00:28:00,
2013-01-29 19:30:00,43.9,40.6,30.10,NE,45,0.0,1.0,88,0.02,,,0.05,VWS V14.01,2013-01-30 00:30:00,
2013-01-29 19:33:00,43.8,40.5,30.10,NE,40,0.0,0.0,88,0.02,,,0.05,VWS V14.01,2013-01-30 00:33:00,
2013-01-29 19:38:00,43.8,40.5,30.10,NE,40,0.0,3.0,88,0.02,,,0.05,VWS V14.01,2013-01-30 00:38:00,
2013-01-29 19:43:00,43.7,40.4,30.10,North,5,0.0,3.0,88,0.02,,,0.05,VWS V14.01,2013-01-30 00:43:00,
2013-01-29 19:45:00,43.7,40.7,30.10,NE,45,0.0,4.0,89,0.02,,,0.05,VWS V14.01,2013-01-30 00:45:00,
2013-01-29 19:48:00,43.7,40.4,30.10,North,5,0.0,0.0,88,0.02,,,0.05,VWS V14.01,2013-01-30 00:48:00,
2013-01-29 19:53:00,43.5,40.5,30.10,North,5,0.0,0.0,89,0.02,,,0.05,VWS V14.01,2013-01-30 00:53:00,
2013-01-29 19:58:00,43.4,40.4,30.10,North,5,0.0,0.0,89,0.02,,,0.05,VWS V14.01,2013-01-30 00:58:00,
2013-01-29 20:00:00,43.4,40.4,30.10,North,0,0.0,1.0,89,0.02,,,0.05,VWS V14.01,2013-01-30 01:00:00,
2013-01-29 20:03:00,43.4,40.4,30.10,SSE,168,0.0,8.0,89,0.00,,,0.05,VWS V14.01,2013-01-30 01:03:00,
2013-01-29 20:08:00,43.4,40.1,30.10,ENE,60,1.0,8.0,88,0.00,,,0.05,VWS V14.01,2013-01-30 01:08:00,
2013-01-29 20:13:00,43.4,40.1,30.10,NW,313,0.0,8.0,88,0.00,,,0.05,VWS V14.01,2013-01-30 01:13:00,
2013-01-29 20:15:00,43.4,40.1,30.10,ENE,68,1.0,8.0,88,0.00,,,0.05,VWS V14.01,2013-01-30 01:15:00,
2013-01-29 20:18:00,43.4,40.1,30.10,NW,313,0.0,0.0,88,0.00,,,0.05,VWS V14.01,2013-01-30 01:18:00,
2013-01-29 20:23:00,43.5,40.2,30.10,NW,313,0.0,0.0,88,0.00,,,0.05,VWS V14.01,2013-01-30 01:23:00,
2013-01-29 20:28:00,43.5,40.2,30.10,NW,313,0.0,0.0,88,0.00,,,0.05,VWS V14.01,2013-01-30 01:28:00,
2013-01-29 20:30:00,43.5,40.2,30.10,NW,315,0.0,2.0,88,0.00,,,0.05,VWS V14.01,2013-01-30 01:30:00,
2013-01-29 20:32:00,43.4,40.1,30.10,NW,313,0.0,2.0,88,0.00,,,0.05,VWS V14.01,2013-01-30 01:32:00,
2013-01-29 20:37:00,43.4,39.8,30.10,NW,313,0.0,2.0,87,0.00,,,0.05,VWS V14.01,2013-01-30 01:37:00,
2013-01-29 20:42:00,43.4,40.1,30.10,NW,313,0.0,2.0,88,0.00,,,0.05,VWS V14.01,2013-01-30 01:42:00,
2013-01-29 20:45:00,43.4,40.1,30.09,NW,315,0.0,2.0,88,0.00,,,0.05,VWS V14.01,2013-01-30 01:45:00,
2013-01-29 20:47:00,43.5,40.2,30.09,WNW,303,0.0,7.0,88,0.00,,,0.05,VWS V14.01,2013-01-30 01:47:00,
2013-01-29 20:52:00,43.7,40.4,30.09,NW,306,1.0,7.0,88,0.00,,,0.05,VWS V14.01,2013-01-30 01:52:00,
2013-01-29 20:57:00,43.7,40.4,30.09,WNW,292,0.0,7.0,88,0.00,,,0.05,VWS V14.01,2013-01-30 01:57:00,
2013-01-29 21:00:00,43.7,40.4,30.09,WNW,292,1.0,7.0,88,0.00,,,0.05,VWS V14.01,2013-01-30 02:00:00,
2013-01-29 21:02:00,43.8,40.5,30.09,WNW,292,2.0,4.0,88,0.00,,,0.05,VWS V14.01,2013-01-30 02:02:00,
2013-01-29 21:07:00,43.8,40.5,30.09,NW,315,0.0,4.0,88,0.00,,,0.05,VWS V14.01,2013-01-30 02:07:00,
2013-01-29 21:12:00,43.8,40.5,30.09,NW,313,3.0,4.0,88,0.00,,,0.05,VWS V14.01,2013-01-30 02:12:00,
2013-01-29 21:15:00,43.8,40.2,30.08,WNW,292,1.0,6.0,87,0.00,,,0.05,VWS V14.01,2013-01-30 02:15:00,
2013-01-29 21:17:00,43.9,40.6,30.08,West,274,2.0,6.0,88,0.00,,,0.05,VWS V14.01,2013-01-30 02:17:00,
2013-01-29 21:22:00,43.9,40.3,30.08,NW,314,2.0,6.0,87,0.00,,,0.05,VWS V14.01,2013-01-30 02:22:00,
2013-01-29 21:27:00,44.1,40.5,30.08,WNW,284,3.0,7.0,87,0.00,,,0.05,VWS V14.01,2013-01-30 02:27:00,
2013-01-29 21:30:00,44.1,40.5,30.08,NW,315,3.0,7.0,87,0.00,,,0.05,VWS V14.01,2013-01-30 02:30:00,
2013-01-29 21:32:00,44.1,40.5,30.08,NNW,328,0.0,0.0,87,0.00,,,0.05,VWS V14.01,2013-01-30 02:32:00,
2013-01-29 21:37:00,43.9,40.3,30.08,NNW,331,2.0,4.0,87,0.00,,,0.05,VWS V14.01,2013-01-30 02:37:00,
2013-01-29 21:42:00,43.8,40.2,30.08,NNW,331,0.0,5.0,87,0.00,,,0.05,VWS V14.01,2013-01-30 02:42:00,
2013-01-29 21:45:00,43.8,40.2,30.08,NW,315,0.0,5.0,87,0.00,,,0.05,VWS V14.01,2013-01-30 02:45:00,
2013-01-29 21:47:00,43.8,40.2,30.08,NNW,331,0.0,0.0,87,0.00,,,0.05,VWS V14.01,2013-01-30 02:47:00,
2013-01-29 21:52:00,43.8,40.2,30.08,NNW,331,0.0,0.0,87,0.00,,,0.05,VWS V14.01,2013-01-30 02:52:00,
2013-01-29 21:57:00,43.8,40.5,30.08,NNW,331,0.0,4.0,88,0.00,,,0.05,VWS V14.01,2013-01-30 02:57:00,
2013-01-29 22:00:00,43.8,40.5,30.08,NNW,338,0.0,4.0,88,0.00,,,0.05,VWS V14.01,2013-01-30 03:00:00,
2013-01-29 22:02:00,43.8,40.5,30.08,North,349,0.0,2.0,88,0.00,,,0.05,VWS V14.01,2013-01-30 03:02:00,
2013-01-29 22:07:00,43.9,40.6,30.08,North,349,0.0,4.0,88,0.00,,,0.05,VWS V14.01,2013-01-30 03:07:00,
2013-01-29 22:12:00,43.9,40.6,30.08,NNE,30,0.0,4.0,88,0.00,,,0.05,VWS V14.01,2013-01-30 03:12:00,
2013-01-29 22:15:00,43.9,40.6,30.07,North,0,1.0,4.0,88,0.00,,,0.05,VWS V14.01,2013-01-30 03:15:00,
2013-01-29 22:17:00,43.9,40.6,30.07,NNE,32,0.0,2.0,88,0.00,,,0.05,VWS V14.01,2013-01-30 03:17:00,
2013-01-29 22:22:00,43.9,40.9,30.07,WNW,298,0.0,4.0,89,0.00,,,0.05,VWS V14.01,2013-01-30 03:22:00,
2013-01-29 22:27:00,44.1,41.1,30.07,SSE,157,0.0,5.0,89,0.00,,,0.05,VWS V14.01,2013-01-30 03:27:00,
2013-01-29 22:30:00,44.1,41.1,30.07,NNE,22,1.0,6.0,89,0.00,,,0.05,VWS V14.01,2013-01-30 03:30:00,
2013-01-29 22:32:00,44.1,41.1,30.07,NW,309,0.0,1.0,89,0.00,,,0.05,VWS V14.01,2013-01-30 03:32:00,
2013-01-29 22:37:00,44.1,41.1,30.07,WNW,286,2.0,8.0,89,0.00,,,0.05,VWS V14.01,2013-01-30 03:37:00,
2013-01-29 22:42:00,44.1,41.1,30.07,East,80,1.0,8.0,89,0.00,,,0.05,VWS V14.01,2013-01-30 03:42:00,
2013-01-29 22:45:00,44.2,41.2,30.07,WNW,292,1.0,8.0,89,0.00,,,0.05,VWS V14.01,2013-01-30 03:45:00,
2013-01-29 22:47:00,44.2,41.2,30.07,SSE,155,2.0,5.0,89,0.00,,,0.05,VWS V14.01,2013-01-30 03:47:00,
2013-01-29 22:52:00,44.2,41.5,30.07,NW,313,0.0,5.0,90,0.00,,,0.05,VWS V14.01,2013-01-30 03:52:00,
2013-01-29 22:57:00,44.4,41.7,30.07,WNW,290,6.0,8.0,90,0.00,,,0.05,VWS V14.01,2013-01-30 03:57:00,
2013-01-29 23:00:00,44.4,41.7,30.07,West,270,2.0,8.0,90,0.00,,,0.05,VWS V14.01,2013-01-30 04:00:00,
2013-01-29 23:02:00,44.4,41.7,30.07,NW,326,0.0,0.0,90,0.00,,,0.05,VWS V14.01,2013-01-30 04:02:00,
2013-01-29 23:07:00,44.4,41.9,30.07,NNW,338,2.0,5.0,91,0.00,,,0.05,VWS V14.01,2013-01-30 04:07:00,
2013-01-29 23:12:00,44.5,42.0,30.07,NW,323,0.0,6.0,91,0.00,,,0.05,VWS V14.01,2013-01-30 04:12:00,
2013-01-29 23:15:00,44.5,42.0,30.07,NNW,338,1.0,6.0,91,0.00,,,0.05,VWS V14.01,2013-01-30 04:15:00,
2013-01-29 23:17:00,44.5,42.0,30.07,NNW,327,0.0,0.0,91,0.00,,,0.05,VWS V14.01,2013-01-30 04:17:00,
2013-01-29 23:22:00,44.5,42.0,30.07,North,355,3.0,3.0,91,0.00,,,0.05,VWS V14.01,2013-01-30 04:22:00,
2013-01-29 23:27:00,44.5,42.0,30.07,ENE,75,4.0,6.0,91,0.00,,,0.05,VWS V14.01,2013-01-30 04:27:00,
2013-01-29 23:30:00,44.5,42.3,30.06,North,0,1.0,6.0,92,0.00,,,0.05,VWS V14.01,2013-01-30 04:30:00,
2013-01-29 23:32:00,44.5,42.3,30.06,East,89,0.0,1.0,92,0.00,,,0.05,VWS V14.01,2013-01-30 04:32:00,
2013-01-29 23:37:00,44.5,42.3,30.06,East,92,0.0,2.0,92,0.00,,,0.05,VWS V14.01,2013-01-30 04:37:00,
2013-01-29 23:42:00,44.4,42.2,30.06,ENE,65,4.0,4.0,92,0.00,,,0.05,VWS V14.01,2013-01-30 04:42:00,
2013-01-29 23:45:00,44.4,42.2,30.06,ENE,68,1.0,6.0,92,0.00,,,0.05,VWS V14.01,2013-01-30 04:45:00,
2013-01-29 23:47:00,44.5,42.3,30.06,ENE,69,0.0,0.0,92,0.00,,,0.05,VWS V14.01,2013-01-30 04:47:00,
2013-01-29 23:52:00,44.4,42.2,30.06,ENE,69,0.0,1.0,92,0.00,,,0.05,VWS V14.01,2013-01-30 04:52:00,
2013-01-29 23:57:00,44.5,42.3,30.06,WNW,292,0.0,8.0,92,0.00,,,0.05,VWS V14.01,2013-01-30 04:57:00,